createdAt,value
2019-03-30T00:01:25.317Z,7.40
2019-03-30T00:03:56.139Z,7.03
2019-03-30T00:06:26.961Z,7.83
2019-03-30T00:08:57.669Z,6.50
2019-03-30T00:11:28.333Z,6.40
2019-03-30T00:13:59.106Z,6.10
2019-03-30T00:16:29.850Z,6.07
2019-03-30T00:19:00.533Z,6.53
2019-03-30T00:21:31.205Z,7.23
2019-03-30T00:24:01.909Z,7.10
2019-03-30T00:26:32.554Z,7.53
2019-03-30T00:29:08.986Z,7.10
2019-03-30T00:31:39.666Z,7.33
2019-03-30T00:34:10.298Z,7.47
2019-03-30T00:36:40.936Z,6.90
2019-03-30T00:39:11.608Z,7.47
2019-03-30T00:41:42.310Z,7.23
2019-03-30T00:44:13.012Z,7.33
2019-03-30T00:46:43.645Z,6.63
2019-03-30T00:49:14.381Z,6.67
2019-03-30T00:51:45.167Z,6.53
2019-03-30T00:54:15.840Z,6.20
2019-03-30T00:56:46.483Z,7.10
2019-03-30T00:59:17.162Z,6.43
2019-03-30T01:01:47.790Z,6.83
2019-03-30T01:04:18.500Z,6.73
2019-03-30T01:06:49.216Z,5.93
2019-03-30T01:09:20.206Z,6.53
2019-03-30T01:11:51.008Z,6.70
2019-03-30T01:14:21.875Z,6.57
2019-03-30T01:16:52.817Z,7.17
2019-03-30T01:19:23.755Z,6.67
2019-03-30T01:21:56.220Z,6.97
2019-03-30T01:24:27.462Z,6.13
2019-03-30T01:26:58.451Z,7.70
2019-03-30T01:29:29.298Z,7.60
2019-03-30T01:32:00.196Z,7.70
2019-03-30T01:34:30.832Z,7.27
2019-03-30T01:37:01.547Z,6.80
2019-03-30T01:39:32.299Z,6.73
2019-03-30T01:42:02.904Z,6.83
2019-03-30T01:44:33.633Z,6.30
2019-03-30T01:47:04.269Z,6.33
2019-03-30T01:49:34.982Z,7.17
2019-03-30T01:52:05.694Z,6.30
2019-03-30T01:54:36.521Z,4.77
2019-03-30T01:57:07.186Z,3.93
2019-03-30T01:59:37.908Z,4.23
2019-03-30T02:02:08.496Z,4.70
2019-03-30T02:04:39.155Z,4.60
2019-03-30T02:07:09.770Z,5.10
2019-03-30T02:09:40.423Z,6.13
2019-03-30T02:12:11.059Z,5.50
2019-03-30T02:14:41.662Z,6.23
2019-03-30T02:17:12.230Z,6.83
2019-03-30T02:19:42.995Z,6.20
2019-03-30T02:22:16.889Z,6.23
2019-03-30T02:24:47.626Z,5.80
2019-03-30T02:27:18.251Z,5.63
2019-03-30T02:29:48.871Z,5.10
2019-03-30T02:32:19.472Z,5.10
2019-03-30T02:34:50.152Z,5.80
2019-03-30T02:37:20.737Z,4.33
2019-03-30T02:39:51.386Z,4.67
2019-03-30T02:42:21.962Z,4.57
2019-03-30T02:44:52.590Z,5.70
2019-03-30T02:47:23.281Z,6.10
2019-03-30T02:49:54.021Z,5.53
2019-03-30T02:52:24.606Z,5.90
2019-03-30T02:54:55.418Z,6.80
2019-03-30T02:57:26.111Z,6.47
2019-03-30T02:59:56.956Z,7.10
2019-03-30T03:02:27.672Z,7.20
2019-03-30T03:04:58.420Z,7.80
2019-03-30T03:07:29.238Z,7.30
2019-03-30T03:09:59.918Z,7.10
2019-03-30T03:12:30.587Z,6.87
2019-03-30T03:15:02.728Z,6.07
2019-03-30T03:17:33.475Z,6.23
2019-03-30T03:20:04.173Z,6.47
2019-03-30T03:22:34.940Z,7.30
2019-03-30T03:25:06.039Z,6.80
2019-03-30T03:27:36.823Z,6.63
2019-03-30T03:30:08.796Z,6.80
2019-03-30T03:32:39.486Z,7.00
2019-03-30T03:35:10.286Z,6.90
2019-03-30T03:37:45.143Z,6.90
2019-03-30T03:40:13.519Z,6.90
2019-03-30T03:42:44.147Z,7.37
2019-03-30T03:45:14.871Z,7.63
2019-03-30T03:47:45.514Z,8.33
2019-03-30T03:50:36.613Z,7.47
2019-03-30T03:53:07.203Z,7.13
2019-03-30T03:55:38.436Z,8.00
2019-03-30T03:58:09.123Z,7.00
2019-03-30T04:00:40.085Z,7.60
2019-03-30T04:03:11.743Z,6.03
2019-03-30T04:05:45.286Z,6.20
2019-03-30T04:08:15.850Z,6.77
2019-03-30T04:10:50.265Z,6.70
2019-03-30T04:13:22.152Z,6.60
2019-03-30T04:15:52.885Z,7.20
2019-03-30T04:18:23.512Z,6.90
2019-03-30T04:20:54.162Z,7.20
2019-03-30T04:23:24.792Z,7.10
2019-03-30T04:25:55.469Z,6.90
2019-03-30T04:28:26.150Z,7.83
2019-03-30T04:30:56.812Z,7.40
2019-03-30T04:33:27.380Z,6.70
2019-03-30T04:35:57.993Z,7.37
2019-03-30T04:38:28.725Z,7.40
2019-03-30T04:40:59.302Z,7.10
2019-03-30T04:43:29.915Z,6.17
2019-03-30T04:46:00.619Z,6.03
2019-03-30T04:48:31.226Z,5.97
2019-03-30T04:51:01.809Z,6.13
2019-03-30T04:53:32.445Z,6.50
2019-03-30T04:56:03.035Z,6.30
2019-03-30T04:58:33.623Z,6.70
2019-03-30T05:01:04.246Z,6.70
2019-03-30T05:03:34.815Z,5.90
2019-03-30T05:06:05.415Z,6.63
2019-03-30T05:08:35.971Z,6.20
2019-03-30T05:11:06.618Z,6.30
2019-03-30T05:13:37.288Z,6.10
2019-03-30T05:16:07.917Z,6.90
2019-03-30T05:18:38.601Z,6.80
2019-03-30T05:21:09.219Z,6.30
2019-03-30T05:23:39.819Z,6.07
2019-03-30T05:26:10.523Z,6.27
2019-03-30T05:28:41.120Z,6.20
2019-03-30T05:31:11.737Z,6.83
2019-03-30T05:33:42.392Z,7.17
2019-03-30T05:36:16.069Z,6.57
2019-03-30T05:38:46.665Z,6.83
2019-03-30T05:41:17.385Z,6.43
2019-03-30T05:43:48.107Z,6.33
2019-03-30T05:46:18.765Z,6.57
2019-03-30T05:48:49.336Z,5.97
2019-03-30T05:51:19.891Z,7.23
2019-03-30T05:53:50.425Z,7.27
2019-03-30T05:56:21.011Z,7.47
2019-03-30T05:58:51.551Z,7.10
2019-03-30T06:01:22.163Z,8.33
2019-03-30T06:03:52.737Z,8.83
2019-03-30T06:06:23.975Z,8.03
2019-03-30T06:08:54.563Z,8.20
2019-03-30T06:11:25.147Z,7.87
2019-03-30T06:13:55.718Z,8.40
2019-03-30T06:16:26.297Z,7.70
2019-03-30T06:18:57.001Z,8.93
2019-03-30T06:21:27.562Z,9.23
2019-03-30T06:23:58.106Z,8.63
2019-03-30T06:26:28.722Z,9.33
2019-03-30T06:28:59.252Z,7.90
2019-03-30T06:31:29.870Z,9.60
2019-03-30T06:34:00.436Z,9.13
2019-03-30T06:36:31.024Z,9.87
2019-03-30T06:39:01.585Z,10.17
2019-03-30T06:41:32.167Z,9.00
2019-03-30T06:44:02.737Z,9.43
2019-03-30T06:46:33.311Z,9.67
2019-03-30T06:49:04.004Z,9.70
2019-03-30T06:51:34.575Z,9.77
2019-03-30T06:54:05.208Z,10.10
2019-03-30T06:56:35.805Z,10.23
2019-03-30T06:59:06.427Z,10.20
2019-03-30T07:01:37.035Z,9.80
2019-03-30T07:04:11.055Z,9.83
2019-03-30T07:06:40.577Z,10.13
2019-03-30T07:09:11.144Z,11.53
2019-03-30T07:11:43.810Z,11.20
2019-03-30T07:14:14.479Z,10.60
2019-03-30T07:16:45.656Z,10.87
2019-03-30T07:19:16.929Z,10.60
2019-03-30T07:21:47.570Z,12.07
2019-03-30T07:24:19.868Z,11.47
2019-03-30T07:26:50.446Z,11.10
2019-03-30T07:29:21.144Z,11.10
2019-03-30T07:31:51.778Z,10.43
2019-03-30T07:34:22.356Z,9.63
2019-03-30T07:36:52.966Z,10.37
2019-03-30T07:39:26.606Z,12.07
2019-03-30T07:41:57.256Z,9.80
2019-03-30T07:44:27.936Z,10.07
2019-03-30T07:46:58.534Z,10.83
2019-03-30T07:49:29.168Z,11.07
2019-03-30T07:51:59.856Z,11.57
2019-03-30T07:54:30.470Z,11.03
2019-03-30T07:57:06.199Z,10.80
2019-03-30T07:59:33.389Z,10.50
2019-03-30T08:02:03.996Z,10.90
2019-03-30T08:04:34.635Z,9.70
2019-03-30T08:07:05.772Z,10.13
2019-03-30T08:09:37.324Z,10.63
2019-03-30T08:12:08.037Z,10.77
2019-03-30T08:14:38.644Z,10.27
2019-03-30T08:17:09.268Z,11.87
2019-03-30T08:19:39.883Z,10.90
2019-03-30T08:22:10.502Z,12.07
2019-03-30T08:24:41.101Z,11.23
2019-03-30T08:27:11.978Z,11.23
2019-03-30T08:29:44.938Z,10.67
2019-03-30T08:32:15.598Z,10.33
2019-03-30T08:34:46.207Z,10.03
2019-03-30T08:37:18.553Z,9.60
2019-03-30T08:39:49.344Z,10.00
2019-03-30T08:42:20.614Z,10.03
2019-03-30T08:44:51.230Z,9.17
2019-03-30T08:47:21.857Z,9.60
2019-03-30T08:49:52.497Z,8.27
2019-03-30T08:52:23.135Z,8.37
2019-03-30T08:54:53.906Z,8.57
2019-03-30T08:57:24.560Z,8.07
2019-03-30T08:59:55.566Z,9.03
2019-03-30T09:02:26.190Z,7.27
2019-03-30T09:04:56.786Z,7.07
2019-03-30T09:07:27.413Z,7.87
2019-03-30T09:09:58.139Z,6.97
2019-03-30T09:12:28.739Z,7.03
2019-03-30T09:14:59.353Z,7.87
2019-03-30T09:17:29.947Z,6.13
2019-03-30T09:20:00.722Z,5.30
2019-03-30T09:22:31.297Z,5.27
2019-03-30T09:25:03.129Z,4.87
2019-03-30T09:27:33.755Z,4.53
2019-03-30T09:30:05.937Z,4.50
2019-03-30T09:32:36.544Z,4.37
2019-03-30T09:35:07.370Z,4.20
2019-03-30T09:37:37.959Z,4.80
2019-03-30T09:40:08.947Z,4.13
2019-03-30T09:42:39.517Z,6.28
2019-03-30T09:45:10.234Z,5.10
2019-03-30T09:47:40.835Z,4.43
2019-03-30T09:50:11.453Z,4.73
2019-03-30T09:52:42.073Z,4.73
2019-03-30T09:55:12.725Z,4.10
2019-03-30T09:57:43.325Z,3.90
2019-03-30T10:00:14.083Z,4.47
2019-03-30T10:02:44.669Z,4.53
2019-03-30T10:05:15.278Z,3.83
2019-03-30T10:07:45.849Z,4.13
2019-03-30T10:10:16.485Z,3.57
2019-03-30T10:12:47.051Z,4.10
2019-03-30T10:15:17.669Z,3.77
2019-03-30T10:17:48.282Z,3.67
2019-03-30T10:20:18.878Z,4.10
2019-03-30T10:22:49.454Z,4.07
2019-03-30T10:25:20.068Z,4.10
2019-03-30T10:27:50.649Z,3.40
2019-03-30T10:30:21.272Z,3.43
2019-03-30T10:32:51.835Z,4.13
2019-03-30T10:35:22.424Z,3.97
2019-03-30T10:37:53.022Z,3.47
2019-03-30T10:40:23.656Z,4.03
2019-03-30T10:42:54.198Z,3.63
2019-03-30T10:45:24.798Z,3.33
2019-03-30T10:47:55.375Z,3.80
2019-03-30T10:50:26.033Z,4.40
2019-03-30T10:52:56.601Z,3.77
2019-03-30T10:55:27.211Z,3.60
2019-03-30T10:57:58.743Z,4.20
2019-03-30T11:00:40.989Z,4.17
2019-03-30T11:03:11.533Z,4.43
2019-03-30T11:05:42.159Z,3.97
2019-03-30T11:08:12.723Z,4.27
2019-03-30T11:10:43.339Z,3.63
2019-03-30T11:13:14.009Z,3.80
2019-03-30T11:15:44.696Z,3.50
2019-03-30T11:18:15.246Z,3.13
2019-03-30T11:21:07.845Z,3.63
2019-03-30T11:23:38.543Z,4.23
2019-03-30T11:26:10.120Z,4.17
2019-03-30T11:28:42.197Z,4.47
2019-03-30T11:31:13.150Z,4.03
2019-03-30T11:33:43.725Z,4.17
2019-03-30T11:36:14.424Z,3.87
2019-03-30T11:38:45.011Z,3.77
2019-03-30T11:41:15.619Z,3.60
2019-03-30T11:43:46.183Z,4.27
2019-03-30T11:46:16.799Z,3.57
2019-03-30T11:48:47.419Z,3.73
2019-03-30T11:51:17.999Z,4.43
2019-03-30T11:53:48.762Z,4.27
2019-03-30T11:56:19.481Z,3.53
2019-03-30T11:58:50.753Z,4.23
2019-03-30T12:01:21.882Z,4.17
2019-03-30T12:03:52.591Z,4.30
2019-03-30T12:06:23.173Z,4.23
2019-03-30T12:08:53.733Z,4.00
2019-03-30T12:11:24.334Z,4.27
2019-03-30T12:13:57.222Z,4.30
2019-03-30T12:16:27.803Z,4.90
2019-03-30T12:18:58.521Z,3.83
2019-03-30T12:22:45.837Z,4.03
2019-03-30T12:25:18.093Z,4.43
2019-03-30T12:27:48.684Z,3.97
2019-03-30T12:30:19.241Z,4.17
2019-03-30T12:32:49.822Z,4.40
2019-03-30T12:35:20.385Z,5.00
2019-03-30T12:37:50.969Z,4.43
2019-03-30T12:40:21.531Z,4.20
2019-03-30T12:42:52.126Z,4.57
2019-03-30T12:45:22.741Z,4.67
2019-03-30T12:47:53.313Z,5.10
2019-03-30T12:50:23.858Z,5.07
2019-03-30T12:52:54.464Z,4.80
2019-03-30T12:55:25.064Z,5.20
2019-03-30T12:57:55.650Z,4.93
2019-03-30T13:00:26.205Z,5.27
2019-03-30T13:02:56.769Z,5.10
2019-03-30T13:05:27.322Z,5.37
2019-03-30T13:07:57.904Z,5.07
2019-03-30T13:10:28.459Z,5.10
2019-03-30T13:12:59.039Z,5.60
2019-03-30T13:15:29.596Z,5.00
2019-03-30T13:18:00.174Z,5.43
2019-03-30T13:20:30.724Z,5.90
2019-03-30T13:23:01.328Z,5.20
2019-03-30T13:25:31.894Z,4.57
2019-03-30T13:28:02.478Z,4.73
2019-03-30T13:30:33.049Z,5.20
2019-03-30T13:33:03.633Z,5.67
2019-03-30T13:35:34.218Z,4.70
2019-03-30T13:38:04.799Z,4.63
2019-03-30T13:40:35.384Z,4.27
2019-03-30T13:43:06.422Z,4.87
2019-03-30T13:45:36.993Z,5.10
2019-03-30T13:48:09.428Z,5.50
2019-03-30T13:50:40.003Z,5.17
2019-03-30T13:53:10.579Z,4.47
2019-03-30T13:55:41.112Z,4.83
2019-03-30T13:58:11.715Z,4.90
2019-03-30T14:00:42.272Z,5.50
2019-03-30T14:03:12.837Z,4.57
2019-03-30T14:05:43.931Z,5.10
2019-03-30T14:08:14.510Z,5.43
2019-03-30T14:10:45.103Z,5.00
2019-03-30T14:13:22.948Z,4.57
2019-03-30T14:15:53.605Z,4.30
2019-03-30T14:18:24.264Z,4.97
2019-03-30T14:20:54.785Z,4.90
2019-03-30T14:23:25.376Z,5.70
2019-03-30T14:25:55.940Z,5.23
2019-03-30T14:28:26.517Z,4.87
2019-03-30T14:30:57.063Z,4.93
2019-03-30T14:33:27.684Z,5.45
2019-03-30T14:35:58.263Z,6.33
2019-03-30T14:38:28.869Z,5.20
2019-03-30T14:40:59.423Z,5.90
2019-03-30T14:43:30.041Z,5.83
2019-03-30T14:46:00.615Z,6.20
2019-03-30T14:48:31.238Z,5.50
2019-03-30T14:51:01.808Z,4.80
2019-03-30T14:53:32.400Z,5.77
2019-03-30T14:56:03.045Z,5.23
2019-03-30T14:58:33.692Z,5.70
2019-03-30T15:01:04.224Z,5.30
2019-03-30T15:03:34.843Z,6.45
2019-03-30T15:06:07.021Z,5.70
2019-03-30T15:08:37.812Z,6.47
2019-03-30T15:11:08.389Z,6.37
2019-03-30T15:13:38.992Z,6.08
2019-03-30T15:16:09.565Z,5.77
2019-03-30T15:18:40.148Z,6.17
2019-03-30T15:21:10.731Z,5.58
2019-03-30T15:23:41.332Z,6.63
2019-03-30T15:26:11.891Z,6.33
2019-03-30T15:28:42.909Z,6.07
2019-03-30T15:31:13.605Z,6.35
2019-03-30T15:33:44.221Z,6.33
2019-03-30T15:36:14.794Z,5.30
2019-03-30T15:38:45.370Z,6.17
2019-03-30T15:41:17.085Z,5.70
2019-03-30T15:43:47.713Z,6.10
2019-03-30T15:46:29.031Z,5.40
2019-03-30T15:49:00.903Z,6.00
2019-03-30T15:51:32.113Z,4.95
2019-03-30T15:54:09.120Z,5.42
2019-03-30T15:56:39.959Z,5.75
2019-03-30T15:59:10.536Z,5.45
2019-03-30T16:01:41.164Z,6.55
2019-03-30T16:04:11.763Z,5.97
2019-03-30T16:06:42.358Z,5.55
2019-03-30T16:09:12.928Z,5.62
2019-03-30T16:11:43.599Z,6.47
2019-03-30T16:14:14.176Z,5.47
2019-03-30T16:16:44.762Z,5.55
2019-03-30T16:19:15.326Z,5.92
2019-03-30T16:21:49.470Z,6.43
2019-03-30T16:24:18.214Z,6.15
2019-03-30T16:26:48.797Z,5.65
2019-03-30T16:29:19.362Z,6.00
2019-03-30T16:31:49.971Z,6.03
2019-03-30T16:34:20.548Z,5.87
2019-03-30T16:36:51.141Z,6.40
2019-03-30T16:39:21.709Z,6.78
2019-03-30T16:41:52.320Z,6.80
2019-03-30T16:44:22.847Z,6.47
2019-03-30T16:46:53.452Z,7.12
2019-03-30T16:49:24.081Z,6.30
2019-03-30T16:51:54.726Z,6.78
2019-03-30T16:54:25.344Z,6.42
2019-03-30T16:56:55.934Z,7.33
2019-03-30T16:59:26.538Z,7.33
2019-03-30T17:01:57.073Z,7.45
2019-03-30T17:04:29.554Z,6.75
2019-03-30T17:07:00.021Z,7.00
2019-03-30T17:09:30.623Z,6.78
2019-03-30T17:12:02.978Z,7.83
2019-03-30T17:14:33.530Z,7.40
2019-03-30T17:17:04.148Z,8.10
2019-03-30T17:19:34.787Z,7.10
2019-03-30T17:22:05.390Z,7.62
2019-03-30T17:24:35.944Z,7.25
2019-03-30T17:27:06.512Z,7.20
2019-03-30T17:29:37.087Z,7.20
2019-03-30T17:32:07.674Z,8.35
2019-03-30T17:34:38.250Z,7.90
2019-03-30T17:37:08.868Z,8.50
2019-03-30T17:39:39.423Z,7.80
2019-03-30T17:42:10.204Z,7.40
2019-03-30T17:44:40.754Z,8.00
2019-03-30T17:47:11.376Z,7.63
2019-03-30T17:49:41.965Z,6.87
2019-03-30T17:52:12.629Z,7.20
2019-03-30T17:54:43.250Z,8.27
2019-03-30T17:57:17.332Z,7.53
2019-03-30T17:59:46.198Z,7.20
2019-03-30T18:02:17.208Z,7.17
2019-03-30T18:04:47.816Z,8.30
2019-03-30T18:07:18.381Z,7.67
2019-03-30T18:09:48.970Z,6.97
2019-03-30T18:12:20.566Z,7.63
2019-03-30T18:14:51.322Z,6.40
2019-03-30T18:17:21.918Z,6.72
2019-03-30T18:19:52.487Z,6.87
2019-03-30T18:22:23.104Z,7.65
2019-03-30T18:24:53.673Z,7.33
2019-03-30T18:27:24.913Z,7.23
2019-03-30T18:29:55.511Z,6.73
2019-03-30T18:32:26.734Z,7.97
2019-03-30T18:34:57.591Z,7.73
2019-03-30T18:37:29.724Z,6.80
2019-03-30T18:40:03.595Z,6.70
2019-03-30T18:42:34.285Z,6.97
2019-03-30T18:45:06.416Z,6.80
2019-03-30T18:47:37.014Z,7.63
2019-03-30T18:50:08.198Z,10.60
2019-03-30T18:52:38.808Z,12.87
2019-03-30T18:55:11.007Z,13.50
2019-03-30T18:57:41.588Z,13.97
2019-03-30T19:00:15.527Z,15.43
2019-03-30T19:02:46.125Z,14.97
2019-03-30T19:05:16.839Z,17.47
2019-03-30T19:07:47.417Z,17.70
2019-03-30T19:10:20.926Z,18.50
2019-03-30T19:12:51.512Z,19.50
2019-03-30T19:15:22.218Z,19.47
2019-03-30T19:17:52.823Z,20.70
2019-03-30T19:20:23.410Z,21.67
2019-03-30T19:22:53.981Z,23.13
2019-03-30T19:25:24.577Z,24.30
2019-03-30T19:27:55.229Z,23.50
2019-03-30T19:30:25.893Z,25.07
2019-03-30T19:32:56.564Z,25.40
2019-03-30T19:35:27.223Z,24.33
2019-03-30T19:37:57.755Z,24.40
2019-03-30T19:40:28.432Z,26.03
2019-03-30T19:42:58.997Z,23.83
2019-03-30T19:45:29.955Z,23.80
2019-03-30T19:48:00.524Z,23.93
2019-03-30T19:50:31.205Z,23.27
2019-03-30T19:53:01.777Z,22.87
2019-03-30T19:55:32.475Z,21.93
2019-03-30T19:58:03.065Z,22.50
2019-03-30T20:00:34.179Z,21.37
2019-03-30T20:03:04.785Z,22.30
2019-03-30T20:05:35.953Z,22.37
2019-03-30T20:08:12.401Z,22.13
2019-03-30T20:10:38.843Z,23.37
2019-03-30T20:13:09.885Z,22.70
2019-03-30T20:15:40.504Z,22.97
2019-03-30T20:18:11.141Z,21.57
2019-03-30T20:20:42.202Z,23.23
2019-03-30T20:23:12.761Z,21.80
2019-03-30T20:25:43.426Z,21.10
2019-03-30T20:28:14.000Z,22.27
2019-03-30T20:30:44.614Z,25.03
2019-03-30T20:33:15.205Z,24.60
2019-03-30T20:35:45.830Z,23.57
2019-03-30T20:38:16.425Z,24.63
2019-03-30T20:40:47.057Z,24.30
2019-03-30T20:43:17.627Z,23.70
2019-03-30T20:45:48.233Z,25.20
2019-03-30T20:48:18.827Z,23.97
2019-03-30T20:50:49.487Z,24.53
2019-03-30T20:53:20.079Z,23.77
2019-03-30T20:55:50.733Z,24.47
2019-03-30T20:58:21.359Z,25.83
2019-03-30T21:00:51.962Z,25.63
2019-03-30T21:03:22.568Z,25.40
2019-03-30T21:05:53.251Z,26.57
2019-03-30T21:08:23.901Z,25.77
2019-03-30T21:10:54.540Z,26.60
2019-03-30T21:13:25.123Z,27.10
2019-03-30T21:15:55.719Z,27.07
2019-03-30T21:18:26.299Z,26.20
2019-03-30T21:20:56.993Z,26.17
2019-03-30T21:23:27.563Z,27.40
2019-03-30T21:25:58.159Z,27.23
2019-03-30T21:28:28.776Z,33.80
2019-03-30T21:30:59.381Z,27.27
2019-03-30T21:33:29.936Z,26.17
2019-03-30T21:36:01.294Z,24.77
2019-03-30T21:38:31.982Z,24.07
2019-03-30T21:41:02.552Z,25.03
2019-03-30T21:43:33.114Z,24.73
2019-03-30T21:46:03.678Z,23.00
2019-03-30T21:48:34.260Z,23.73
2019-03-30T21:51:04.951Z,22.90
2019-03-30T21:53:35.520Z,21.80
2019-03-30T21:56:06.177Z,21.30
2019-03-30T21:58:36.729Z,21.03
2019-03-30T22:01:07.327Z,19.87
2019-03-30T22:03:37.955Z,20.80
2019-03-30T22:06:08.704Z,20.07
2019-03-30T22:08:39.679Z,21.53
2019-03-30T22:11:10.400Z,21.17
2019-03-30T22:13:40.981Z,21.63
2019-03-30T22:16:11.593Z,22.93
2019-03-30T22:18:42.186Z,21.53
2019-03-30T22:21:12.795Z,23.20
2019-03-30T22:23:43.346Z,22.07
2019-03-30T22:26:13.933Z,22.53
2019-03-30T22:28:44.541Z,21.03
2019-03-30T22:31:15.107Z,22.70
2019-03-30T22:33:45.734Z,21.47
2019-03-30T22:36:24.015Z,21.33
2019-03-30T22:38:54.610Z,20.23
2019-03-30T22:41:25.172Z,20.80
2019-03-30T22:43:55.822Z,20.30
2019-03-30T22:46:26.367Z,20.07
2019-03-30T22:48:56.931Z,19.33
2019-03-30T22:51:27.584Z,19.63
2019-03-30T22:53:58.172Z,20.57
2019-03-30T22:56:28.803Z,20.13
2019-03-30T22:58:59.407Z,20.93
2019-03-30T23:01:29.971Z,19.63
2019-03-30T23:04:00.613Z,19.57
2019-03-30T23:06:31.238Z,20.30
2019-03-30T23:09:01.884Z,20.63
2019-03-30T23:11:33.129Z,20.43
2019-03-30T23:14:03.770Z,19.50
2019-03-30T23:16:34.389Z,19.30
2019-03-30T23:19:04.995Z,20.53
2019-03-30T23:21:35.590Z,19.03
2019-03-30T23:24:06.172Z,19.17
2019-03-30T23:26:36.922Z,19.63
2019-03-30T23:29:07.588Z,18.77
2019-03-30T23:31:38.198Z,18.53
2019-03-30T23:34:08.818Z,18.30
2019-03-30T23:36:39.388Z,19.37
2019-03-30T23:39:10.097Z,18.27
2019-03-30T23:41:41.270Z,18.37
2019-03-30T23:44:11.878Z,19.63
2019-03-30T23:46:42.517Z,19.30
2019-03-30T23:49:13.234Z,19.17
2019-03-30T23:51:43.877Z,19.53
2019-03-30T23:54:16.353Z,19.73
2019-03-30T23:56:46.941Z,19.77
2019-03-30T23:59:17.758Z,19.10
